Time;durP1;ratioP1;P1;durP2;ratioP2;P2;SDS_P1;SDS_P2;PMS_P1;PMS_P2;Temp;Humidity;BMP_temperature;BMP_pressure;BME280_temperature;BME280_humidity;BME280_pressure;Samples;Min_cycle;Max_cycle;Signal;HPM_P1;HPM_P2
2023/09/04 00:00:14;;;;;;;11.10;10.00;;;;;;;;;;2611357;54;20403;-71
2023/09/04 00:02:40;;;;;;;11.63;10.50;;;;;;;;;;2612104;54;20422;-73
2023/09/04 00:05:07;;;;;;;11.80;10.67;;;;;;;;;;2612318;54;20407;-72
2023/09/04 00:07:33;;;;;;;14.30;11.70;;;;;;;;;;2611420;54;20434;-72
2023/09/04 00:09:59;;;;;;;12.80;10.57;;;;;;;;;;2611502;54;20494;-72
2023/09/04 00:12:25;;;;;;;11.23;10.10;;;;;;;;;;2610494;54;20563;-73
2023/09/04 00:14:51;;;;;;;12.90;11.57;;;;;;;;;;2612250;54;20379;-71
2023/09/04 00:17:18;;;;;;;12.53;10.30;;;;;;;;;;2611332;54;20427;-72
2023/09/04 00:19:44;;;;;;;11.40;10.20;;;;;;;;;;2610992;54;20427;-72
2023/09/04 00:22:11;;;;;;;13.40;10.63;;;;;;;;;;2610719;54;20435;-71
2023/09/04 00:24:37;;;;;;;10.33;9.33;;;;;;;;;;2612358;54;20519;-70
2023/09/04 00:27:03;;;;;;;13.20;11.20;;;;;;;;;;2612031;54;21047;-74
2023/09/04 00:29:29;;;;;;;13.50;11.17;;;;;;;;;;2611711;54;20547;-74
2023/09/04 00:31:55;;;;;;;12.87;11.67;;;;;;;;;;2612784;39;20981;-73
2023/09/04 00:34:22;;;;;;;15.63;10.60;;;;;;;;;;2612669;31;20932;-74
2023/09/04 00:36:48;;;;;;;11.53;10.43;;;;;;;;;;2612589;54;20439;-74
2023/09/04 00:39:14;;;;;;;12.30;11.10;;;;;;;;;;2613130;39;20867;-73
2023/09/04 00:41:40;;;;;;;18.77;11.30;;;;;;;;;;2611399;54;20545;-73
2023/09/04 00:44:07;;;;;;;11.67;10.57;;;;;;;;;;2612961;54;20984;-73
2023/09/04 00:46:34;;;;;;;11.83;10.63;;;;;;;;;;2613054;54;20435;-73
2023/09/04 00:49:01;;;;;;;11.83;10.73;;;;;;;;;;2612262;54;20415;-73
2023/09/04 00:51:27;;;;;;;12.90;11.60;;;;;;;;;;2611441;54;20410;-74
2023/09/04 00:53:54;;;;;;;12.03;10.90;;;;;;;;;;2612837;54;20432;-74
2023/09/04 00:56:20;;;;;;;12.67;11.47;;;;;;;;;;2612577;54;20717;-75
2023/09/04 00:58:47;;;;;;;12.33;10.90;;;;;;;;;;2613136;54;20427;-73
2023/09/04 01:01:13;;;;;;;14.83;12.10;;;;;;;;;;2612555;54;20460;-73
2023/09/04 01:03:39;;;;;;;12.93;11.73;;;;;;;;;;2611866;47;20481;-74
2023/09/04 01:06:06;;;;;;;13.40;12.00;;;;;;;;;;2612602;54;20523;-74
2023/09/04 01:08:32;;;;;;;14.97;11.50;;;;;;;;;;2612557;47;20435;-74
2023/09/04 01:11:08;;;;;;;11.50;10.33;;;;;;;;;;2612842;39;20689;-74
2023/09/04 01:13:40;;;;;;;11.57;10.33;;;;;;;;;;2613470;54;21033;-74
2023/09/04 01:16:07;;;;;;;12.87;11.60;;;;;;;;;;2613552;54;20424;-74
2023/09/04 01:18:34;;;;;;;16.03;11.50;;;;;;;;;;2612922;54;20406;-75
2023/09/04 01:21:01;;;;;;;15.03;11.77;;;;;;;;;;2612284;54;20411;-74
2023/09/04 01:23:27;;;;;;;12.40;11.13;;;;;;;;;;2611762;46;20406;-75
2023/09/04 01:26:14;;;;;;;16.30;11.50;;;;;;;;;;2612308;47;20978;-75
2023/09/04 01:28:46;;;;;;;15.60;11.90;;;;;;;;;;2611560;54;20523;-74
2023/09/04 01:31:20;;;;;;;15.20;11.40;;;;;;;;;;2612129;54;20423;-74
2023/09/04 01:33:50;;;;;;;14.90;12.67;;;;;;;;;;2610980;54;20463;-73
2023/09/04 01:36:17;;;;;;;13.97;11.60;;;;;;;;;;2612250;39;20865;-71
2023/09/04 01:38:47;;;;;;;14.80;11.93;;;;;;;;;;2612194;46;20422;-71
2023/09/04 01:41:13;;;;;;;12.40;11.20;;;;;;;;;;2612088;54;20423;-71
2023/09/04 01:43:39;;;;;;;17.00;11.97;;;;;;;;;;2611513;39;21101;-73
2023/09/04 01:46:05;;;;;;;15.37;10.97;;;;;;;;;;2611270;54;20383;-72
2023/09/04 01:48:31;;;;;;;13.37;11.87;;;;;;;;;;2611891;54;20419;-70
2023/09/04 01:50:57;;;;;;;12.83;11.43;;;;;;;;;;2612122;54;20531;-71
2023/09/04 01:53:23;;;;;;;14.30;12.20;;;;;;;;;;2611285;54;20383;-72
2023/09/04 01:55:49;;;;;;;14.40;11.60;;;;;;;;;;2611022;54;20498;-72
2023/09/04 01:58:15;;;;;;;15.40;11.87;;;;;;;;;;2611292;54;20392;-73
2023/09/04 02:00:43;;;;;;;15.70;11.90;;;;;;;;;;2611591;39;20935;-72
2023/09/04 02:03:09;;;;;;;13.10;11.70;;;;;;;;;;2611468;54;20410;-72
2023/09/04 02:05:39;;;;;;;12.80;11.50;;;;;;;;;;2612321;46;20399;-71
2023/09/04 02:08:07;;;;;;;13.40;12.00;;;;;;;;;;2611950;39;20906;-71
2023/09/04 02:10:34;;;;;;;14.73;11.80;;;;;;;;;;2612212;54;20419;-71
2023/09/04 02:13:00;;;;;;;14.77;13.20;;;;;;;;;;2611796;54;20439;-71
2023/09/04 02:15:26;;;;;;;13.47;11.60;;;;;;;;;;2611752;54;20522;-71
2023/09/04 02:17:52;;;;;;;14.57;10.93;;;;;;;;;;2612456;54;20415;-70
2023/09/04 02:20:18;;;;;;;14.17;12.50;;;;;;;;;;2612129;54;20820;-71
2023/09/04 02:22:44;;;;;;;13.33;11.63;;;;;;;;;;2610645;54;20487;-71
2023/09/04 02:25:10;;;;;;;14.20;11.90;;;;;;;;;;2612739;39;20878;-72
2023/09/04 02:27:37;;;;;;;14.00;10.77;;;;;;;;;;2610812;53;20965;-70
2023/09/04 02:30:07;;;;;;;12.93;10.87;;;;;;;;;;2611230;47;20399;-70
2023/09/04 02:32:33;;;;;;;12.67;10.70;;;;;;;;;;2612088;54;20391;-71
2023/09/04 02:35:00;;;;;;;14.67;11.47;;;;;;;;;;2612438;54;20957;-70
2023/09/04 02:37:27;;;;;;;13.70;12.10;;;;;;;;;;2612250;54;20446;-73
2023/09/04 02:39:53;;;;;;;14.43;11.90;;;;;;;;;;2612547;54;20419;-71
2023/09/04 02:42:19;;;;;;;14.23;11.03;;;;;;;;;;2611906;54;20415;-70
2023/09/04 02:44:45;;;;;;;12.67;11.33;;;;;;;;;;2612699;54;20438;-70
2023/09/04 02:47:11;;;;;;;18.13;12.00;;;;;;;;;;2612648;54;20459;-74
2023/09/04 02:49:37;;;;;;;16.80;12.80;;;;;;;;;;2612225;54;20423;-74
2023/09/04 02:52:03;;;;;;;15.67;12.37;;;;;;;;;;2612026;54;20419;-74
2023/09/04 02:54:30;;;;;;;13.60;11.90;;;;;;;;;;2612849;54;20614;-74
2023/09/04 02:56:57;;;;;;;15.07;13.03;;;;;;;;;;2612139;47;20514;-74
2023/09/04 02:59:23;;;;;;;14.50;12.87;;;;;;;;;;2612867;39;20884;-74
2023/09/04 03:01:49;;;;;;;19.43;12.33;;;;;;;;;;2612372;54;20438;-74
2023/09/04 03:04:16;;;;;;;12.50;11.40;;;;;;;;;;2611848;54;20458;-74
2023/09/04 03:06:42;;;;;;;21.73;13.20;;;;;;;;;;2613045;47;21021;-74
2023/09/04 03:09:09;;;;;;;13.70;11.70;;;;;;;;;;2614389;54;20438;-74
2023/09/04 03:11:35;;;;;;;17.10;14.07;;;;;;;;;;2613764;54;20420;-74
2023/09/04 03:14:01;;;;;;;13.30;11.13;;;;;;;;;;2613675;54;20475;-74
2023/09/04 03:16:29;;;;;;;13.90;11.90;;;;;;;;;;2612832;54;20478;-74
2023/09/04 03:18:55;;;;;;;18.10;12.37;;;;;;;;;;2612691;47;20431;-73
2023/09/04 03:21:21;;;;;;;15.40;11.80;;;;;;;;;;2611178;39;20691;-73
2023/09/04 03:23:51;;;;;;;12.67;11.33;;;;;;;;;;2612891;54;20439;-73
2023/09/04 03:26:17;;;;;;;15.83;12.13;;;;;;;;;;2612303;54;20542;-73
2023/09/04 03:28:43;;;;;;;14.57;13.07;;;;;;;;;;2611703;47;20446;-73
2023/09/04 03:31:14;;;;;;;13.43;12.03;;;;;;;;;;2611527;54;20515;-74
2023/09/04 03:33:40;;;;;;;20.90;12.70;;;;;;;;;;2612292;54;20421;-74
2023/09/04 03:36:06;;;;;;;12.27;10.97;;;;;;;;;;2613375;54;20418;-73
2023/09/04 03:38:32;;;;;;;13.90;12.43;;;;;;;;;;2611345;54;20495;-73
2023/09/04 03:40:58;;;;;;;14.63;11.07;;;;;;;;;;2611425;47;20474;-73
2023/09/04 03:43:24;;;;;;;26.17;12.80;;;;;;;;;;2611110;54;21027;-73
2023/09/04 03:45:50;;;;;;;14.37;12.53;;;;;;;;;;2611540;47;20439;-74
2023/09/04 03:48:16;;;;;;;15.77;12.50;;;;;;;;;;2612684;54;20419;-74
2023/09/04 03:50:42;;;;;;;15.00;12.30;;;;;;;;;;2613713;54;20957;-74
2023/09/04 03:53:08;;;;;;;13.63;12.03;;;;;;;;;;2612811;54;21188;-74
2023/09/04 03:55:34;;;;;;;13.40;12.07;;;;;;;;;;2612164;54;20431;-73
2023/09/04 03:58:00;;;;;;;14.33;12.80;;;;;;;;;;2612685;54;20408;-74
2023/09/04 04:00:26;;;;;;;12.37;10.93;;;;;;;;;;2611554;47;20420;-73
2023/09/04 04:02:52;;;;;;;14.70;12.40;;;;;;;;;;2612725;31;20851;-73
2023/09/04 04:05:19;;;;;;;14.70;12.20;;;;;;;;;;2611675;54;20431;-73
2023/09/04 04:07:45;;;;;;;14.50;12.13;;;;;;;;;;2610708;47;20422;-74
2023/09/04 04:10:11;;;;;;;13.77;12.37;;;;;;;;;;2611171;54;20455;-73
2023/09/04 04:12:38;;;;;;;15.43;11.77;;;;;;;;;;2611400;54;20451;-73
2023/09/04 04:15:06;;;;;;;15.47;13.07;;;;;;;;;;2609024;54;20554;-73
2023/09/04 04:17:32;;;;;;;15.57;13.97;;;;;;;;;;2609713;54;20482;-74
2023/09/04 04:19:58;;;;;;;14.33;12.90;;;;;;;;;;2609183;54;20478;-73
2023/09/04 04:22:25;;;;;;;18.13;12.90;;;;;;;;;;2609559;54;21461;-73
2023/09/04 04:24:51;;;;;;;13.57;12.27;;;;;;;;;;2609128;54;20927;-74
2023/09/04 04:27:17;;;;;;;15.63;11.80;;;;;;;;;;2609334;54;21268;-74
2023/09/04 04:29:44;;;;;;;15.10;13.03;;;;;;;;;;2609580;54;20411;-73
2023/09/04 04:32:10;;;;;;;14.10;12.60;;;;;;;;;;2611250;54;20423;-73
2023/09/04 04:34:36;;;;;;;13.37;11.97;;;;;;;;;;2609609;47;20435;-73
2023/09/04 04:37:04;;;;;;;15.73;12.30;;;;;;;;;;2608027;47;20974;-73
2023/09/04 04:39:37;;;;;;;14.27;12.70;;;;;;;;;;2608301;46;20500;-73
2023/09/04 04:42:03;;;;;;;12.80;11.50;;;;;;;;;;2609788;54;20400;-73
2023/09/04 04:44:29;;;;;;;16.00;11.70;;;;;;;;;;2609762;54;20518;-73
2023/09/04 04:46:55;;;;;;;14.63;12.03;;;;;;;;;;2608814;54;20438;-73
2023/09/04 04:49:22;;;;;;;14.57;13.07;;;;;;;;;;2609181;54;20378;-72
2023/09/04 04:51:54;;;;;;;14.23;12.70;;;;;;;;;;2608820;54;20443;-72
2023/09/04 04:54:20;;;;;;;18.20;13.90;;;;;;;;;;2610526;54;20422;-73
2023/09/04 04:56:49;;;;;;;15.70;13.43;;;;;;;;;;2610433;54;20387;-72
2023/09/04 04:59:15;;;;;;;15.43;13.73;;;;;;;;;;2612005;47;20427;-72
2023/09/04 05:01:42;;;;;;;18.60;13.53;;;;;;;;;;2610859;54;20392;-73
2023/09/04 05:04:08;;;;;;;14.10;12.60;;;;;;;;;;2612249;54;20439;-73
2023/09/04 05:06:34;;;;;;;16.03;13.20;;;;;;;;;;2611750;54;20467;-72
2023/09/04 05:09:00;;;;;;;21.67;14.50;;;;;;;;;;2612872;54;20539;-73
2023/09/04 05:11:26;;;;;;;18.83;15.37;;;;;;;;;;2612106;54;20415;-73
2023/09/04 05:13:52;;;;;;;18.20;14.73;;;;;;;;;;2612601;39;20833;-73
2023/09/04 05:16:18;;;;;;;19.50;13.63;;;;;;;;;;2611639;54;20424;-74
2023/09/04 05:18:44;;;;;;;16.43;14.20;;;;;;;;;;2611089;54;20419;-72
2023/09/04 05:21:12;;;;;;;25.73;17.37;;;;;;;;;;2611727;47;20431;-73
2023/09/04 05:23:38;;;;;;;24.90;16.73;;;;;;;;;;2611328;47;20431;-73
2023/09/04 05:26:04;;;;;;;16.93;14.77;;;;;;;;;;2611998;39;20916;-72
2023/09/04 05:28:30;;;;;;;20.30;13.93;;;;;;;;;;2609710;47;21338;-72
2023/09/04 05:31:03;;;;;;;18.73;14.73;;;;;;;;;;2611260;54;20554;-72
2023/09/04 05:33:29;;;;;;;18.10;13.80;;;;;;;;;;2611623;54;20441;-77
2023/09/04 05:35:56;;;;;;;17.40;12.97;;;;;;;;;;2609625;54;20407;-72
2023/09/04 05:38:23;;;;;;;17.83;13.50;;;;;;;;;;2611546;47;20440;-69
2023/09/04 05:40:49;;;;;;;18.67;13.73;;;;;;;;;;2608653;47;20423;-70
2023/09/04 05:43:16;;;;;;;17.80;12.87;;;;;;;;;;2611439;54;20410;-72
2023/09/04 05:45:42;;;;;;;13.93;12.07;;;;;;;;;;2610837;39;20893;-71
2023/09/04 05:48:08;;;;;;;14.93;11.90;;;;;;;;;;2610709;54;20428;-71
2023/09/04 05:50:34;;;;;;;16.67;11.10;;;;;;;;;;2611733;54;20981;-71
2023/09/04 05:53:00;;;;;;;10.93;9.87;;;;;;;;;;2612183;54;20456;-71
2023/09/04 05:55:26;;;;;;;15.60;11.73;;;;;;;;;;2610733;54;20422;-71
2023/09/04 05:57:52;;;;;;;13.17;11.20;;;;;;;;;;2611299;54;20396;-71
2023/09/04 06:00:18;;;;;;;17.70;11.33;;;;;;;;;;2612225;39;20810;-71
2023/09/04 06:02:45;;;;;;;13.60;10.60;;;;;;;;;;2611356;54;20403;-70
2023/09/04 06:05:11;;;;;;;15.00;11.83;;;;;;;;;;2611648;54;20523;-71
2023/09/04 06:07:37;;;;;;;14.10;12.67;;;;;;;;;;2611149;54;20416;-73
2023/09/04 06:10:03;;;;;;;14.33;12.80;;;;;;;;;;2611470;54;20416;-71
2023/09/04 06:12:29;;;;;;;12.93;11.73;;;;;;;;;;2608119;54;20480;-71
2023/09/04 06:14:55;;;;;;;13.97;12.67;;;;;;;;;;2611297;54;20531;-71
2023/09/04 06:17:21;;;;;;;26.40;14.10;;;;;;;;;;2611504;54;21041;-73
2023/09/04 06:19:47;;;;;;;15.40;13.70;;;;;;;;;;2611789;54;20407;-74
2023/09/04 06:22:13;;;;;;;15.43;13.90;;;;;;;;;;2610674;54;20407;-73
2023/09/04 06:24:39;;;;;;;14.07;12.63;;;;;;;;;;2610760;54;20427;-74
2023/09/04 06:27:06;;;;;;;15.57;13.57;;;;;;;;;;2610686;54;21160;-73
2023/09/04 06:29:32;;;;;;;13.60;12.50;;;;;;;;;;2611869;54;20429;-73
2023/09/04 06:31:58;;;;;;;15.90;12.60;;;;;;;;;;2612079;54;20387;-73
2023/09/04 06:34:24;;;;;;;14.30;12.90;;;;;;;;;;2611684;54;20416;-72
2023/09/04 06:36:50;;;;;;;15.13;13.73;;;;;;;;;;2611871;54;20422;-74
2023/09/04 06:39:16;;;;;;;13.70;12.37;;;;;;;;;;2612310;54;20451;-74
2023/09/04 06:41:42;;;;;;;15.27;13.67;;;;;;;;;;2611776;54;20432;-72
2023/09/04 06:44:08;;;;;;;14.23;13.03;;;;;;;;;;2612042;39;20902;-73
2023/09/04 06:46:34;;;;;;;19.50;16.20;;;;;;;;;;2611192;54;20408;-73
2023/09/04 06:49:01;;;;;;;15.40;13.90;;;;;;;;;;2630567;36;20443;-73
2023/09/04 06:51:28;;;;;;;16.53;14.33;;;;;;;;;;2612536;54;20459;-73
2023/09/04 06:53:54;;;;;;;15.73;14.43;;;;;;;;;;2611571;54;20399;-74
2023/09/04 06:56:20;;;;;;;15.37;14.07;;;;;;;;;;2613297;54;21386;-73
2023/09/04 06:58:46;;;;;;;14.63;13.53;;;;;;;;;;2612904;54;20415;-73
2023/09/04 07:01:13;;;;;;;14.27;13.10;;;;;;;;;;2613004;54;20408;-74
2023/09/04 07:03:39;;;;;;;15.77;14.37;;;;;;;;;;2613743;54;20450;-72
2023/09/04 07:06:08;;;;;;;16.77;15.07;;;;;;;;;;2611029;54;20462;-74
2023/09/04 07:08:34;;;;;;;15.47;14.37;;;;;;;;;;2614137;54;20416;-74
2023/09/04 07:11:00;;;;;;;15.10;14.10;;;;;;;;;;2612438;47;20407;-74
2023/09/04 07:13:26;;;;;;;15.50;14.40;;;;;;;;;;2612784;54;20538;-74
2023/09/04 07:15:52;;;;;;;15.33;13.83;;;;;;;;;;2612576;54;20408;-72
2023/09/04 07:18:18;;;;;;;15.57;14.27;;;;;;;;;;2612185;54;20499;-73
2023/09/04 07:20:44;;;;;;;17.07;15.47;;;;;;;;;;2613509;54;20511;-73
2023/09/04 07:23:10;;;;;;;16.57;15.17;;;;;;;;;;2613315;54;20423;-73
2023/09/04 07:25:36;;;;;;;16.03;14.27;;;;;;;;;;2612494;54;20400;-73
2023/09/04 07:28:03;;;;;;;15.57;14.37;;;;;;;;;;2612220;54;20528;-70
2023/09/04 07:30:29;;;;;;;16.60;14.87;;;;;;;;;;2611012;54;20436;-71
2023/09/04 07:32:55;;;;;;;15.57;14.47;;;;;;;;;;2610447;54;20970;-71
2023/09/04 07:35:21;;;;;;;14.80;13.70;;;;;;;;;;2610620;46;20415;-71
2023/09/04 07:37:47;;;;;;;13.83;12.80;;;;;;;;;;2611841;54;20424;-71
2023/09/04 07:40:13;;;;;;;14.50;13.10;;;;;;;;;;2612621;39;20774;-71
2023/09/04 07:42:41;;;;;;;14.33;13.23;;;;;;;;;;2611406;54;21061;-70
2023/09/04 07:45:07;;;;;;;13.73;12.63;;;;;;;;;;2611952;54;20419;-72
2023/09/04 07:47:33;;;;;;;14.13;13.13;;;;;;;;;;2612353;54;20404;-70
2023/09/04 07:49:59;;;;;;;13.57;12.53;;;;;;;;;;2612560;54;20392;-70
2023/09/04 07:52:25;;;;;;;14.87;13.67;;;;;;;;;;2612940;54;20490;-70
2023/09/04 07:54:51;;;;;;;14.93;13.70;;;;;;;;;;2612856;54;20400;-71
2023/09/04 07:57:17;;;;;;;14.17;12.97;;;;;;;;;;2613107;39;20935;-70
2023/09/04 07:59:44;;;;;;;14.30;13.20;;;;;;;;;;2609594;52;20430;-72
2023/09/04 08:02:10;;;;;;;14.53;13.13;;;;;;;;;;2608995;54;21367;-71
2023/09/04 08:04:36;;;;;;;13.20;12.30;;;;;;;;;;2611074;54;20404;-72
2023/09/04 08:07:02;;;;;;;14.43;13.30;;;;;;;;;;2610037;54;20407;-71
2023/09/04 08:09:28;;;;;;;13.90;12.90;;;;;;;;;;2612912;54;20416;-72
2023/09/04 08:11:55;;;;;;;13.40;12.20;;;;;;;;;;2612434;54;20423;-71
2023/09/04 08:14:21;;;;;;;12.23;11.33;;;;;;;;;;2610411;54;20427;-70
2023/09/04 08:16:47;;;;;;;12.23;11.43;;;;;;;;;;2608663;54;20569;-71
2023/09/04 08:19:13;;;;;;;13.23;12.30;;;;;;;;;;2608668;54;20410;-71
2023/09/04 08:21:39;;;;;;;13.17;12.27;;;;;;;;;;2609787;54;20392;-71
2023/09/04 08:24:05;;;;;;;12.10;11.40;;;;;;;;;;2608101;54;20426;-71
2023/09/04 08:26:32;;;;;;;13.13;12.17;;;;;;;;;;2607738;54;20428;-70
2023/09/04 08:28:58;;;;;;;12.27;11.50;;;;;;;;;;2608032;54;20404;-71
2023/09/04 08:31:24;;;;;;;12.90;11.90;;;;;;;;;;2609884;39;20821;-71
2023/09/04 08:33:50;;;;;;;12.30;11.27;;;;;;;;;;2605740;54;20416;-71
2023/09/04 08:36:16;;;;;;;13.33;12.37;;;;;;;;;;2608779;54;20450;-71
2023/09/04 08:38:42;;;;;;;12.03;11.27;;;;;;;;;;2609203;39;20768;-72
2023/09/04 08:41:09;;;;;;;12.00;11.10;;;;;;;;;;2607251;54;20396;-74
2023/09/04 08:43:36;;;;;;;12.37;11.70;;;;;;;;;;2608395;54;20389;-74
2023/09/04 08:46:04;;;;;;;12.70;11.60;;;;;;;;;;2607037;54;20404;-73
2023/09/04 08:48:30;;;;;;;13.53;12.63;;;;;;;;;;2608989;54;20460;-73
2023/09/04 08:50:57;;;;;;;12.03;11.33;;;;;;;;;;2609048;54;20394;-73
2023/09/04 08:53:23;;;;;;;11.90;11.30;;;;;;;;;;2611922;54;20515;-73
2023/09/04 08:55:50;;;;;;;12.23;11.57;;;;;;;;;;2611715;54;20399;-73
2023/09/04 08:58:17;;;;;;;11.63;10.93;;;;;;;;;;2608829;54;20424;-73
2023/09/04 09:00:44;;;;;;;12.40;11.50;;;;;;;;;;2610220;54;20411;-73
2023/09/04 09:03:11;;;;;;;13.47;11.60;;;;;;;;;;2610606;54;20443;-73
2023/09/04 09:05:37;;;;;;;10.87;10.30;;;;;;;;;;2610985;54;20974;-73
2023/09/04 09:08:05;;;;;;;11.60;10.93;;;;;;;;;;2610559;51;21679;-73
2023/09/04 09:10:31;;;;;;;12.00;11.40;;;;;;;;;;2611731;54;20443;-72
2023/09/04 09:12:57;;;;;;;13.30;12.23;;;;;;;;;;2611766;54;20466;-73
2023/09/04 09:15:23;;;;;;;14.20;13.10;;;;;;;;;;2611948;54;20412;-73
2023/09/04 09:17:53;;;;;;;13.07;12.17;;;;;;;;;;2612496;39;20866;-73
2023/09/04 09:20:32;;;;;;;12.63;12.03;;;;;;;;;;2611032;39;20785;-73
2023/09/04 09:22:58;;;;;;;13.00;11.90;;;;;;;;;;2610363;54;20395;-73
2023/09/04 09:25:25;;;;;;;13.10;12.23;;;;;;;;;;2611096;47;20551;-73
2023/09/04 09:27:51;;;;;;;13.63;12.63;;;;;;;;;;2610740;54;21036;-73
2023/09/04 09:30:17;;;;;;;13.53;12.80;;;;;;;;;;2611611;39;21118;-73
2023/09/04 09:32:44;;;;;;;12.40;11.80;;;;;;;;;;2610403;54;20454;-73
2023/09/04 09:35:10;;;;;;;13.00;12.10;;;;;;;;;;2610694;54;21168;-73
2023/09/04 09:37:36;;;;;;;13.17;12.33;;;;;;;;;;2609700;54;20467;-72
2023/09/04 09:40:05;;;;;;;13.63;12.63;;;;;;;;;;2605615;54;20489;-73
2023/09/04 09:42:31;;;;;;;13.77;12.57;;;;;;;;;;2608045;54;20435;-73
2023/09/04 09:44:57;;;;;;;13.30;12.40;;;;;;;;;;2612858;46;20535;-74
2023/09/04 09:47:23;;;;;;;12.67;12.00;;;;;;;;;;2613411;54;20536;-73
2023/09/04 09:49:50;;;;;;;13.40;12.70;;;;;;;;;;2609321;54;20415;-73
2023/09/04 09:52:16;;;;;;;13.93;12.93;;;;;;;;;;2612537;54;20412;-73
2023/09/04 09:54:43;;;;;;;13.30;12.37;;;;;;;;;;2612374;54;20583;-72
2023/09/04 09:57:10;;;;;;;13.20;12.43;;;;;;;;;;2611872;54;20971;-72
2023/09/04 09:59:38;;;;;;;13.47;12.33;;;;;;;;;;2612538;54;20434;-73
2023/09/04 10:02:04;;;;;;;12.77;11.77;;;;;;;;;;2611906;54;20404;-73
2023/09/04 10:04:32;;;;;;;12.70;11.90;;;;;;;;;;2613492;54;20398;-72
2023/09/04 10:07:01;;;;;;;12.33;11.73;;;;;;;;;;2613154;54;20914;-72
2023/09/04 10:09:29;;;;;;;12.90;12.30;;;;;;;;;;2613712;39;20862;-73
2023/09/04 10:12:10;;;;;;;12.80;12.20;;;;;;;;;;2612555;54;20926;-72
2023/09/04 10:14:41;;;;;;;12.90;12.07;;;;;;;;;;2612765;54;20436;-73
2023/09/04 10:17:11;;;;;;;12.50;11.90;;;;;;;;;;2607483;54;20408;-72
2023/09/04 10:19:40;;;;;;;13.33;12.43;;;;;;;;;;2609548;39;20767;-72
2023/09/04 10:22:08;;;;;;;13.53;12.73;;;;;;;;;;2609451;47;20418;-72
2023/09/04 10:24:52;;;;;;;13.10;12.33;;;;;;;;;;2614555;54;20403;-73
2023/09/04 10:27:20;;;;;;;12.33;11.43;;;;;;;;;;2614227;54;21387;-72
2023/09/04 10:29:47;;;;;;;12.93;12.13;;;;;;;;;;2613475;54;20936;-73
2023/09/04 10:32:13;;;;;;;12.57;11.97;;;;;;;;;;2612880;54;20412;-72
2023/09/04 10:34:41;;;;;;;12.60;11.70;;;;;;;;;;2610359;54;21234;-73
2023/09/04 10:37:13;;;;;;;12.60;11.90;;;;;;;;;;2610149;54;20548;-73
2023/09/04 10:39:40;;;;;;;12.60;11.80;;;;;;;;;;2610003;54;20431;-73
2023/09/04 10:42:07;;;;;;;13.07;12.30;;;;;;;;;;2610603;54;20519;-72
2023/09/04 10:44:48;;;;;;;12.30;11.70;;;;;;;;;;2610867;54;20416;-73
2023/09/04 10:47:15;;;;;;;13.00;12.07;;;;;;;;;;2611138;54;20414;-74
2023/09/04 10:49:44;;;;;;;13.30;12.60;;;;;;;;;;2607231;54;21017;-74
2023/09/04 10:52:11;;;;;;;12.03;11.53;;;;;;;;;;2612667;39;21100;-72
2023/09/04 10:54:37;;;;;;;11.80;11.20;;;;;;;;;;2611029;39;20999;-72
2023/09/04 10:57:07;;;;;;;11.60;11.10;;;;;;;;;;2608929;39;20834;-72
2023/09/04 10:59:52;;;;;;;11.10;10.60;;;;;;;;;;2610954;54;20383;-72
2023/09/04 11:02:27;;;;;;;12.90;12.10;;;;;;;;;;2610312;54;20423;-70
2023/09/04 11:04:53;;;;;;;12.10;11.50;;;;;;;;;;2610589;54;20527;-72
2023/09/04 11:07:20;;;;;;;12.63;11.87;;;;;;;;;;2611852;54;20428;-70
2023/09/04 11:09:47;;;;;;;11.73;11.13;;;;;;;;;;2613219;47;20412;-71
2023/09/04 11:12:23;;;;;;;12.33;11.70;;;;;;;;;;2612674;54;20430;-69
2023/09/04 11:14:51;;;;;;;12.27;11.67;;;;;;;;;;2614198;54;20383;-70
2023/09/04 11:17:17;;;;;;;11.47;10.77;;;;;;;;;;2611025;54;20442;-70
2023/09/04 11:19:45;;;;;;;10.67;10.27;;;;;;;;;;2611658;54;20440;-71
2023/09/04 11:22:21;;;;;;;11.17;10.67;;;;;;;;;;2613637;54;20423;-70
2023/09/04 11:24:47;;;;;;;11.93;11.33;;;;;;;;;;2613833;39;20973;-70
2023/09/04 11:27:13;;;;;;;12.00;11.20;;;;;;;;;;2614368;39;20840;-71
2023/09/04 11:29:39;;;;;;;11.23;10.60;;;;;;;;;;2613899;39;20795;-70
2023/09/04 11:32:07;;;;;;;11.50;11.00;;;;;;;;;;2613251;39;21038;-71
2023/09/04 11:34:34;;;;;;;11.57;10.97;;;;;;;;;;2613067;54;20970;-70
2023/09/04 11:37:00;;;;;;;11.30;10.80;;;;;;;;;;2613818;54;20431;-73
2023/09/04 11:39:26;;;;;;;11.67;11.20;;;;;;;;;;2613917;54;21008;-70
2023/09/04 11:41:53;;;;;;;12.10;11.40;;;;;;;;;;2613927;54;20384;-70
2023/09/04 11:44:19;;;;;;;10.67;10.17;;;;;;;;;;2613349;54;20467;-71
2023/09/04 11:46:45;;;;;;;10.63;10.13;;;;;;;;;;2614114;47;20399;-70
2023/09/04 11:49:11;;;;;;;9.63;9.13;;;;;;;;;;2613513;46;20442;-72
2023/09/04 11:51:37;;;;;;;10.57;9.70;;;;;;;;;;2613469;54;20419;-72
2023/09/04 11:54:04;;;;;;;10.77;10.17;;;;;;;;;;2612375;54;20416;-71
2023/09/04 11:56:30;;;;;;;10.40;9.90;;;;;;;;;;2614267;54;20423;-70
2023/09/04 11:58:57;;;;;;;11.67;10.97;;;;;;;;;;2614417;54;20392;-71
2023/09/04 12:01:23;;;;;;;11.80;11.30;;;;;;;;;;2612943;54;20483;-70
2023/09/04 12:03:52;;;;;;;12.10;11.40;;;;;;;;;;2610170;54;21309;-73
2023/09/04 12:06:30;;;;;;;11.23;10.73;;;;;;;;;;2612541;47;20416;-70
2023/09/04 12:08:57;;;;;;;11.40;10.77;;;;;;;;;;2614168;54;20543;-72
2023/09/04 12:11:23;;;;;;;11.73;11.03;;;;;;;;;;2612810;47;20452;-73
2023/09/04 12:13:49;;;;;;;11.50;11.00;;;;;;;;;;2613791;54;20443;-72
2023/09/04 12:16:19;;;;;;;11.87;11.27;;;;;;;;;;2610243;54;20447;-72
2023/09/04 12:18:45;;;;;;;11.53;11.13;;;;;;;;;;2612427;54;20435;-72
2023/09/04 12:21:11;;;;;;;12.50;11.70;;;;;;;;;;2611400;54;20408;-72
2023/09/04 12:23:43;;;;;;;11.67;11.17;;;;;;;;;;2613160;54;20415;-73
2023/09/04 12:26:11;;;;;;;12.47;11.87;;;;;;;;;;2613551;31;20900;-73
2023/09/04 12:28:37;;;;;;;11.27;10.77;;;;;;;;;;2613741;54;20517;-73
2023/09/04 12:31:05;;;;;;;11.97;11.50;;;;;;;;;;2613693;54;20421;-73
2023/09/04 12:33:31;;;;;;;11.90;11.23;;;;;;;;;;2613688;54;21430;-72
2023/09/04 12:35:59;;;;;;;12.80;12.20;;;;;;;;;;2613304;54;20388;-72
2023/09/04 12:38:25;;;;;;;11.13;10.67;;;;;;;;;;2614040;54;20536;-73
2023/09/04 12:40:51;;;;;;;12.47;11.80;;;;;;;;;;2613723;54;20974;-72
2023/09/04 12:43:17;;;;;;;11.73;11.30;;;;;;;;;;2612077;54;21335;-72
2023/09/04 12:45:43;;;;;;;11.80;11.30;;;;;;;;;;2610717;47;20414;-73
2023/09/04 12:48:16;;;;;;;11.80;11.27;;;;;;;;;;2610762;54;20399;-73
2023/09/04 12:50:43;;;;;;;11.80;11.20;;;;;;;;;;2611757;54;20414;-73
2023/09/04 12:53:09;;;;;;;11.40;11.00;;;;;;;;;;2612671;54;20977;-73
2023/09/04 12:55:35;;;;;;;12.57;11.87;;;;;;;;;;2611608;47;20439;-73
2023/09/04 12:58:07;;;;;;;12.97;12.23;;;;;;;;;;2610755;54;20436;-74
2023/09/04 13:00:33;;;;;;;12.63;12.13;;;;;;;;;;2610875;54;20412;-73
2023/09/04 13:02:59;;;;;;;12.97;12.37;;;;;;;;;;2640261;36;20502;-73
2023/09/04 13:05:25;;;;;;;11.90;11.40;;;;;;;;;;2611160;54;20428;-73
2023/09/04 13:07:51;;;;;;;12.47;11.87;;;;;;;;;;2610631;54;20416;-72
2023/09/04 13:10:17;;;;;;;12.37;11.67;;;;;;;;;;2610738;54;20414;-72
2023/09/04 13:12:44;;;;;;;12.73;12.07;;;;;;;;;;2611677;54;20427;-72
2023/09/04 13:15:11;;;;;;;12.93;12.37;;;;;;;;;;2612380;54;20764;-72
2023/09/04 13:17:41;;;;;;;12.27;11.67;;;;;;;;;;2612038;54;20427;-75
2023/09/04 13:20:07;;;;;;;12.80;12.20;;;;;;;;;;2612347;54;22175;-73
2023/09/04 13:22:33;;;;;;;12.60;12.00;;;;;;;;;;2613027;39;20769;-73
2023/09/04 13:24:59;;;;;;;12.40;11.90;;;;;;;;;;2612502;39;20756;-73
2023/09/04 13:27:25;;;;;;;12.43;11.83;;;;;;;;;;2612426;54;20797;-73
2023/09/04 13:29:51;;;;;;;12.50;11.90;;;;;;;;;;2612393;54;20439;-74
2023/09/04 13:32:17;;;;;;;12.80;12.20;;;;;;;;;;2611851;54;20444;-73
2023/09/04 13:34:44;;;;;;;12.30;11.80;;;;;;;;;;2611086;54;20415;-73
2023/09/04 13:37:10;;;;;;;12.50;11.90;;;;;;;;;;2612100;54;20529;-70
2023/09/04 13:39:36;;;;;;;12.47;11.97;;;;;;;;;;2612785;39;20836;-70
2023/09/04 13:42:02;;;;;;;12.93;12.17;;;;;;;;;;2612852;39;20826;-70
2023/09/04 13:44:28;;;;;;;13.00;12.40;;;;;;;;;;2612266;39;20798;-71
2023/09/04 13:46:55;;;;;;;12.50;12.00;;;;;;;;;;2612350;54;20414;-70
2023/09/04 13:49:21;;;;;;;12.97;11.97;;;;;;;;;;2612373;54;20396;-71
2023/09/04 13:51:47;;;;;;;12.40;11.80;;;;;;;;;;2611582;54;20435;-71
2023/09/04 13:54:13;;;;;;;11.77;11.17;;;;;;;;;;2611431;54;20463;-71
2023/09/04 13:56:39;;;;;;;13.20;12.50;;;;;;;;;;2612213;54;20486;-73
2023/09/04 13:59:06;;;;;;;12.43;11.83;;;;;;;;;;2611519;46;20434;-70
2023/09/04 14:01:33;;;;;;;12.90;12.20;;;;;;;;;;2609422;54;20423;-71
2023/09/04 14:03:59;;;;;;;12.73;12.10;;;;;;;;;;2608728;39;20451;-71
2023/09/04 14:06:25;;;;;;;11.83;11.23;;;;;;;;;;2610393;54;20414;-70
2023/09/04 14:08:51;;;;;;;12.10;11.40;;;;;;;;;;2611962;39;20776;-69
2023/09/04 14:11:18;;;;;;;12.30;11.80;;;;;;;;;;2608640;54;21196;-72
2023/09/04 14:13:44;;;;;;;12.00;11.50;;;;;;;;;;2608724;54;21235;-71